Time;durP1;ratioP1;P1;durP2;ratioP2;P2;SDS_P1;SDS_P2;PMS_P1;PMS_P2;Temp;Humidity;BMP_temperature;BMP_pressure;BME280_temperature;BME280_humidity;BME280_pressure;Samples;Min_cycle;Max_cycle;Signal;HPM_P1;HPM_P2
2023/10/06 00:00:40;;;;;;;;;12.50;11.00;;;;;16.70;65.74;102237.00;6308163;22;45260;-73
2023/10/06 00:03:06;;;;;;;;;10.50;9.00;;;;;16.59;65.11;102217.59;6307561;22;45326;-73
2023/10/06 00:05:33;;;;;;;;;11.75;10.50;;;;;16.52;65.63;102216.06;6308769;22;45493;-73
2023/10/06 00:07:58;;;;;;;;;14.75;13.75;;;;;16.55;65.77;102224.06;6308715;22;45251;-73
2023/10/06 00:10:27;;;;;;;;;11.75;11.75;;;;;16.43;65.91;102209.19;6280776;22;45275;-72
2023/10/06 00:12:59;;;;;;;;;13.50;12.50;;;;;16.52;65.64;102224.16;6307956;22;45417;-73
2023/10/06 00:15:28;;;;;;;;;14.50;12.75;;;;;16.47;65.74;102225.19;6307605;22;45363;-73
2023/10/06 00:18:07;;;;;;;;;11.75;11.75;;;;;16.51;66.09;102233.19;6279500;22;47915;-72
2023/10/06 00:20:39;;;;;;;;;14.00;13.25;;;;;16.28;66.14;102216.84;6307634;22;45751;-73
2023/10/06 00:23:12;;;;;;;;;18.00;13.50;;;;;16.46;66.16;102246.81;6308753;22;45393;-72
2023/10/06 00:25:42;;;;;;;;;13.50;11.50;;;;;16.39;66.23;102248.84;6307445;22;45476;-73
2023/10/06 00:28:16;;;;;;;;;14.00;13.50;;;;;16.21;66.20;102217.09;6280084;22;46052;-72
2023/10/06 00:30:42;;;;;;;;;15.25;13.00;;;;;16.30;66.29;102233.84;6307186;22;45675;-73
2023/10/06 00:33:07;;;;;;;;;13.50;11.00;;;;;16.25;66.32;102224.13;6254413;22;45368;-72
2023/10/06 00:35:35;;;;;;;;;12.50;9.75;;;;;16.35;66.54;102248.97;6280127;22;45369;-72
2023/10/06 00:38:22;;;;;;;;;15.50;13.00;;;;;16.28;66.45;102246.47;6307852;22;46330;-72
2023/10/06 00:40:53;;;;;;;;;15.00;10.75;;;;;16.09;66.67;102210.31;6306842;22;45255;-73
2023/10/06 00:43:30;;;;;;;;;14.50;13.00;;;;;16.26;66.81;102248.34;6308379;22;45322;-73
2023/10/06 00:46:00;;;;;;;;;15.75;15.00;;;;;16.21;67.05;102239.53;6307989;22;45437;-72
2023/10/06 00:48:28;;;;;;;;;12.75;11.00;;;;;16.16;67.15;102238.78;6307894;22;45975;-72
2023/10/06 00:50:57;;;;;;;;;13.25;12.00;;;;;16.01;67.05;102210.53;6307034;22;45523;-72
2023/10/06 00:53:22;;;;;;;;;11.50;11.50;;;;;16.25;67.13;102257.34;6308502;22;45397;-72
2023/10/06 00:55:48;;;;;;;;;11.50;11.50;;;;;16.15;67.10;102234.31;6280450;22;45247;-72
2023/10/06 00:58:14;;;;;;;;;13.50;12.50;;;;;16.21;67.58;102255.69;6332477;22;48554;-73
2023/10/06 01:00:39;;;;;;;;;9.50;9.50;;;;;16.04;67.21;102229.28;6308196;22;45299;-72
2023/10/06 01:03:11;;;;;;;;;13.25;11.75;;;;;16.15;67.46;102244.22;6280012;22;45268;-72
2023/10/06 01:05:38;;;;;;;;;15.75;13.00;;;;;16.11;67.31;102232.69;6332381;22;45420;-72
2023/10/06 01:08:05;;;;;;;;;14.00;11.00;;;;;16.05;67.32;102219.38;6308068;22;45326;-72
2023/10/06 01:10:34;;;;;;;;;13.75;13.00;;;;;16.20;67.63;102242.25;6307568;22;45530;-72
2023/10/06 01:13:11;;;;;;;;;13.75;11.25;;;;;16.14;67.68;102237.97;6307753;22;45334;-73
2023/10/06 01:15:48;;;;;;;;;14.25;14.00;;;;;15.94;67.72;102200.91;6308559;22;45460;-73
2023/10/06 01:18:23;;;;;;;;;12.50;12.50;;;;;16.14;67.60;102243.34;6309429;22;45314;-73
2023/10/06 01:20:48;;;;;;;;;10.50;10.50;;;;;15.95;67.80;102213.41;6278922;22;45830;-73
2023/10/06 01:23:21;;;;;;;;;12.25;10.75;;;;;16.07;68.10;102228.28;6280535;22;45314;-73
2023/10/06 01:25:50;;;;;;;;;15.00;15.00;;;;;16.00;68.00;102221.34;6308299;22;45403;-72
2023/10/06 01:28:16;;;;;;;;;10.50;10.50;;;;;16.04;68.32;102225.72;6308753;22;46102;-72
2023/10/06 01:30:41;;;;;;;;;14.75;12.50;;;;;15.82;68.18;102191.38;6309461;22;45392;-73
2023/10/06 01:33:07;;;;;;;;;14.25;11.00;;;;;16.06;68.12;102231.94;6281222;22;45391;-72
2023/10/06 01:35:40;;;;;;;;;14.25;12.75;;;;;16.04;68.21;102229.28;6308688;22;45464;-73
2023/10/06 01:38:05;;;;;;;;;15.50;12.75;;;;;15.99;68.07;102233.94;6309348;22;46061;-72
2023/10/06 01:42:56;;;;;;;;;16.25;12.75;;;;;15.76;68.12;102190.69;6308678;22;45362;-73
2023/10/06 01:45:22;;;;;;;;;15.50;13.75;;;;;15.91;67.95;102223.41;6332995;22;45427;-72
2023/10/06 01:47:56;;;;;;;;;11.00;11.00;;;;;15.70;68.12;102184.56;6308995;22;46149;-72
2023/10/06 01:50:26;;;;;;;;;8.00;8.00;;;;;15.90;68.16;102227.03;6333540;22;45328;-73
2023/10/06 01:52:53;;;;;;;;;12.00;12.00;;;;;15.78;68.19;102192.41;6308703;22;45330;-72
2023/10/06 01:55:22;;;;;;;;;16.25;12.50;;;;;15.95;68.17;102217.91;6308909;22;45390;-73
2023/10/06 01:57:48;;;;;;;;;12.00;9.50;;;;;15.90;68.03;102210.88;6280865;22;47059;-73
2023/10/06 02:00:14;;;;;;;;;13.00;12.00;;;;;15.89;68.20;102211.81;6308755;22;45764;-72
2023/10/06 02:02:40;;;;;;;;;12.25;11.00;;;;;15.84;68.11;102199.44;6308439;22;45208;-72
2023/10/06 02:05:08;;;;;;;;;12.50;11.00;;;;;15.73;68.21;102188.94;6279978;22;45360;-73
2023/10/06 02:07:35;;;;;;;;;11.25;10.75;;;;;15.84;68.20;102210.19;6309214;22;45509;-72
2023/10/06 02:10:01;;;;;;;;;12.00;10.25;;;;;15.75;67.92;102197.84;6309286;22;45483;-73
2023/10/06 02:12:26;;;;;;;;;14.50;11.25;;;;;15.67;67.86;102184.63;6309412;22;45344;-73
2023/10/06 02:14:51;;;;;;;;;12.00;12.00;;;;;15.84;68.01;102213.75;6308853;22;45482;-72
2023/10/06 02:17:16;;;;;;;;;0.75;0.25;;;;;15.86;68.13;102219.97;6308409;22;46237;-72
2023/10/06 02:19:42;;;;;;;;;14.00;11.50;;;;;15.62;67.87;102181.22;6309050;22;49737;-72
2023/10/06 02:22:07;;;;;;;;;11.50;8.25;;;;;15.65;68.08;102182.91;6308976;22;46216;-72
2023/10/06 02:24:33;;;;;;;;;11.50;11.50;;;;;15.83;67.84;102214.69;6309093;22;45373;-72
2023/10/06 02:27:01;;;;;;;;;13.25;12.25;;;;;15.64;68.09;102182.03;6332974;22;47301;-72
2023/10/06 02:29:26;;;;;;;;;11.25;10.00;;;;;15.62;68.08;102186.59;6280708;22;45545;-72
2023/10/06 02:32:00;;;;;;;;;12.50;11.00;;;;;15.64;67.99;102182.03;6280744;22;45283;-72
2023/10/06 02:34:29;;;;;;;;;10.75;10.75;;;;;15.79;68.16;102209.47;6279579;22;45321;-72
2023/10/06 02:37:00;;;;;;;;;11.50;10.25;;;;;15.59;68.12;102175.03;6278473;22;47589;-72
2023/10/06 02:39:28;;;;;;;;;3.00;3.00;;;;;15.67;68.14;102200.78;6308911;22;45571;-72
2023/10/06 02:42:01;;;;;;;;;11.75;9.50;;;;;15.56;68.18;102178.69;6308764;22;45358;-72
2023/10/06 02:44:29;;;;;;;;;10.75;9.25;;;;;15.49;68.51;102175.31;6308353;22;45203;-72
2023/10/06 02:46:55;;;;;;;;;13.25;11.00;;;;;15.60;68.50;102195.63;6308217;22;45417;-73
2023/10/06 02:49:28;;;;;;;;;16.50;14.25;;;;;15.45;68.56;102175.44;6308570;22;45353;-73
2023/10/06 02:52:00;;;;;;;;;12.50;12.00;;;;;15.64;68.67;102213.47;6309358;22;45337;-73
2023/10/06 02:54:27;;;;;;;;;10.00;9.00;;;;;15.59;68.75;102210.03;6308671;22;45362;-72
2023/10/06 02:56:55;;;;;;;;;14.50;12.00;;;;;15.58;68.76;102206.44;6280671;22;47256;-72
2023/10/06 02:59:20;;;;;;;;;11.00;11.00;;;;;15.40;68.94;102174.69;6308818;22;45522;-73
2023/10/06 03:01:55;;;;;;;;;14.00;12.75;;;;;15.53;68.86;102205.69;6279969;22;45574;-73
2023/10/06 03:04:22;;;;;;;;;14.00;11.75;;;;;15.51;69.17;102189.59;6308283;22;45427;-72
2023/10/06 03:06:55;;;;;;;;;12.25;12.00;;;;;15.53;69.54;102198.50;6307948;22;45494;-72
2023/10/06 03:09:25;;;;;;;;;13.75;12.75;;;;;15.60;69.43;102215.34;6280993;22;45662;-72
2023/10/06 03:11:51;;;;;;;;;14.50;12.00;;;;;15.42;69.69;102181.81;6280853;22;45267;-73
2023/10/06 03:14:24;;;;;;;;;11.50;11.00;;;;;15.54;69.44;102210.16;6308496;22;45284;-72
2023/10/06 03:16:52;;;;;;;;;13.75;13.50;;;;;15.37;69.28;102183.75;6308675;22;45348;-72
2023/10/06 03:19:24;;;;;;;;;10.00;9.25;;;;;15.51;69.26;102210.25;6307696;22;45700;-72
2023/10/06 03:21:53;;;;;;;;;15.00;12.00;;;;;15.53;69.30;102211.06;6333188;22;45306;-72
2023/10/06 03:24:20;;;;;;;;;10.50;10.50;;;;;15.44;69.51;102203.28;6308676;22;45494;-73
2023/10/06 03:26:46;;;;;;;;;15.00;11.75;;;;;15.40;69.29;102198.91;6309079;22;45319;-73
2023/10/06 03:29:25;;;;;;;;;11.25;10.00;;;;;15.43;69.52;102202.38;6279480;22;45398;-72
2023/10/06 03:31:50;;;;;;;;;12.00;9.75;;;;;15.46;69.49;102210.38;6307707;22;45329;-73
2023/10/06 03:34:17;;;;;;;;;14.25;11.75;;;;;15.47;69.50;102212.16;6307784;22;45445;-72
2023/10/06 03:36:51;;;;;;;;;12.25;10.75;;;;;15.47;69.31;102216.63;6332558;22;47179;-72
2023/10/06 03:39:28;;;;;;;;;10.75;9.25;;;;;15.39;69.56;102206.09;6308654;22;45259;-72
2023/10/06 03:41:59;;;;;;;;;13.25;12.00;;;;;15.41;69.38;102206.94;6308998;22;45427;-72
2023/10/06 03:44:26;;;;;;;;;13.25;12.25;;;;;15.45;69.25;102205.03;6307040;22;46213;-73
2023/10/06 03:46:53;;;;;;;;;11.50;10.75;;;;;15.30;69.38;102185.75;6308461;22;46061;-72
2023/10/06 03:49:18;;;;;;;;;10.50;9.00;;;;;15.35;69.27;102199.03;6308658;22;45503;-73
2023/10/06 03:51:44;;;;;;;;;11.50;10.50;;;;;15.36;69.49;102195.44;6309262;22;45417;-72
2023/10/06 03:54:10;;;;;;;;;11.50;10.50;;;;;15.21;69.27;102177.94;6308241;22;45427;-72
2023/10/06 03:56:36;;;;;;;;;12.75;9.75;;;;;15.26;69.19;102196.63;6308771;22;45930;-73
2023/10/06 03:59:02;;;;;;;;;12.75;10.00;;;;;15.37;69.56;102216.03;6280665;22;45332;-72
2023/10/06 04:01:31;;;;;;;;;13.25;12.00;;;;;15.17;69.79;102185.22;6332052;22;45424;-73
2023/10/06 04:04:00;;;;;;;;;15.00;12.75;;;;;15.26;69.29;102207.41;6278536;22;45282;-73
2023/10/06 04:06:27;;;;;;;;;12.50;10.25;;;;;15.07;69.39;102172.03;6308217;22;45503;-73
2023/10/06 04:08:53;;;;;;;;;12.25;10.00;;;;;15.05;69.31;102176.59;6280398;22;45816;-72
2023/10/06 04:11:21;;;;;;;;;18.00;13.00;;;;;15.22;69.26;102209.28;6309010;22;45438;-72
2023/10/06 04:13:47;;;;;;;;;17.50;12.25;;;;;15.14;69.48;102201.44;6307437;22;45325;-73
2023/10/06 04:16:14;;;;;;;;;11.25;11.25;;;;;15.19;69.46;102207.56;6308454;22;45366;-72
2023/10/06 04:18:39;;;;;;;;;13.00;11.25;;;;;14.96;69.26;102167.84;6308405;22;45326;-73
2023/10/06 04:21:04;;;;;;;;;14.75;11.00;;;;;15.17;69.42;102214.78;6308708;22;45332;-72
2023/10/06 04:23:30;;;;;;;;;8.25;7.50;;;;;15.01;69.33;102191.94;6279976;22;45464;-72
2023/10/06 04:25:55;;;;;;;;;9.50;8.25;;;;;14.95;69.38;102184.94;6307669;22;45407;-73
2023/10/06 04:28:24;;;;;;;;;10.50;10.50;;;;;15.07;69.24;102204.31;6279978;22;45333;-72
2023/10/06 04:30:49;;;;;;;;;11.00;11.00;;;;;14.93;69.25;102184.06;6308429;22;45188;-73
2023/10/06 04:33:18;;;;;;;;;15.50;13.75;;;;;15.09;69.53;102198.00;6306808;22;45408;-72
2023/10/06 04:36:27;;;;;;;;;10.25;10.25;;;;;15.06;69.42;102199.88;6308068;22;45405;-72
2023/10/06 04:38:37;;;;;;;;;14.00;11.25;;;;;14.95;69.31;102193.00;6295524;22;45401;-73
2023/10/06 04:41:06;;;;;;;;;13.00;12.75;;;;;14.88;69.04;102177.94;6332721;22;45343;-72
2023/10/06 04:43:32;;;;;;;;;13.25;10.50;;;;;14.92;69.43;102192.22;6307113;22;45299;-72
2023/10/06 04:45:57;;;;;;;;;12.75;11.00;;;;;15.02;69.14;102207.16;6306973;22;45906;-73
2023/10/06 04:48:22;;;;;;;;;14.75;13.50;;;;;14.97;69.30;102203.72;6307111;22;45310;-72
2023/10/06 04:50:50;;;;;;;;;15.50;12.75;;;;;14.91;69.42;102209.25;6309333;22;45372;-72
2023/10/06 04:53:16;;;;;;;;;12.25;10.50;;;;;14.97;69.19;102207.28;6280819;22;45342;-73
2023/10/06 04:55:43;;;;;;;;;14.00;12.75;;;;;14.96;69.51;102221.63;6306353;22;45318;-72
2023/10/06 04:58:13;;;;;;;;;14.50;12.00;;;;;14.95;69.42;102219.91;6309406;22;45575;-73
2023/10/06 05:00:39;;;;;;;;;13.25;12.00;;;;;14.84;69.46;102194.22;6308234;22;45293;-73
2023/10/06 05:03:05;;;;;;;;;17.00;14.25;;;;;14.79;69.40;102194.34;6280655;22;45340;-72
2023/10/06 05:05:36;;;;;;;;;11.75;11.75;;;;;14.72;69.37;102187.38;6309069;22;47168;-73
2023/10/06 05:08:02;;;;;;;;;13.75;12.00;;;;;14.87;69.61;102215.63;6309479;22;45629;-73
2023/10/06 05:10:27;;;;;;;;;18.50;14.25;;;;;14.80;69.14;102205.06;6309376;22;45514;-72
2023/10/06 05:12:53;;;;;;;;;14.00;12.00;;;;;14.75;69.33;102206.09;6309246;22;45358;-72
2023/10/06 05:15:26;;;;;;;;;18.50;15.25;;;;;14.79;69.69;102215.84;6309042;22;45439;-73
2023/10/06 05:17:55;;;;;;;;;17.00;14.00;;;;;14.53;69.30;102165.44;6309557;22;45677;-73
2023/10/06 05:20:29;;;;;;;;;12.75;12.00;;;;;14.61;69.80;102182.28;6309312;22;45412;-73
2023/10/06 05:22:55;;;;;;;;;12.75;12.75;;;;;14.54;69.65;102177.94;6309537;22;45427;-73
2023/10/06 05:25:20;;;;;;;;;10.75;9.00;;;;;14.43;69.79;102152.25;6308505;22;47263;-73
2023/10/06 05:27:47;;;;;;;;;16.00;12.00;;;;;14.54;69.62;102172.59;6309093;22;45284;-72
2023/10/06 05:30:13;;;;;;;;;12.00;12.00;;;;;14.72;69.71;102206.19;6308403;22;45217;-73
2023/10/06 05:32:42;;;;;;;;;15.25;13.25;;;;;14.49;69.61;102155.69;6280038;22;45288;-72
2023/10/06 05:35:08;;;;;;;;;16.50;13.75;;;;;14.66;69.89;102196.47;6307081;22;45707;-72
2023/10/06 05:37:33;;;;;;;;;14.50;13.25;;;;;14.70;69.43;102214.28;6309058;22;45542;-72
2023/10/06 05:39:58;;;;;;;;;15.25;12.75;;;;;14.71;69.83;102209.78;6309219;22;45328;-72
2023/10/06 05:42:24;;;;;;;;;18.00;15.75;;;;;14.51;69.66;102181.59;6307957;22;53920;-72
2023/10/06 05:44:49;;;;;;;;;24.50;20.25;;;;;14.46;69.70;102172.75;6308402;22;53414;-73
2023/10/06 05:47:15;;;;;;;;;21.00;21.00;;;;;14.62;69.87;102201.03;6309058;22;45201;-73
2023/10/06 05:49:47;;;;;;;;;23.25;19.00;;;;;14.60;69.90;102202.00;6308839;22;45286;-72
2023/10/06 05:52:13;;;;;;;;;20.50;17.75;;;;;14.53;69.79;102186.94;6309007;22;45381;-72
2023/10/06 05:54:38;;;;;;;;;19.75;18.50;;;;;14.51;70.08;102178.91;6309056;22;45397;-72
2023/10/06 05:57:04;;;;;;;;;20.00;19.00;;;;;14.41;70.20;102172.88;6308491;22;45458;-72
2023/10/06 05:59:33;;;;;;;;;22.25;20.00;;;;;14.58;70.03;102198.44;6309173;22;45362;-74
2023/10/06 06:02:00;;;;;;;;;10.25;9.75;;;;;14.69;70.22;102217.88;6306028;22;45769;-73
2023/10/06 06:04:30;;;;;;;;;20.25;18.50;;;;;14.50;70.28;102173.56;6308124;22;46012;-72
2023/10/06 06:06:56;;;;;;;;;20.25;17.25;;;;;14.60;70.16;102192.16;6280353;22;45289;-72
2023/10/06 06:09:25;;;;;;;;;17.50;17.50;;;;;14.74;70.45;102210.59;6309087;22;45266;-74
2023/10/06 06:11:51;;;;;;;;;19.00;16.75;;;;;14.80;70.84;102214.91;6308581;22;45415;-73
2023/10/06 06:14:20;;;;;;;;;17.00;14.25;;;;;14.59;70.70;102184.13;6280740;22;47259;-73
2023/10/06 06:16:46;;;;;;;;;20.00;17.00;;;;;14.62;70.83;102189.41;6280227;22;45515;-72
2023/10/06 06:19:11;;;;;;;;;17.25;16.00;;;;;14.54;70.75;102177.94;6309074;22;45492;-73
2023/10/06 06:21:38;;;;;;;;;18.50;17.50;;;;;14.81;70.76;102222.06;6309239;22;45231;-72
2023/10/06 06:24:06;;;;;;;;;18.50;16.00;;;;;14.64;70.86;102214.44;6308846;22;45264;-72
2023/10/06 06:26:32;;;;;;;;;17.75;17.25;;;;;14.77;70.73;102226.63;6308759;22;45556;-75
2023/10/06 06:29:02;;;;;;;;;19.50;18.50;;;;;14.78;70.70;102233.78;6306323;22;45369;-75
2023/10/06 06:31:28;;;;;;;;;19.00;17.00;;;;;14.61;70.70;102196.56;6308517;22;45247;-73
2023/10/06 06:33:56;;;;;;;;;20.00;18.00;;;;;14.61;70.71;102203.75;6279829;22;48002;-73
2023/10/06 06:36:21;;;;;;;;;22.25;18.00;;;;;14.53;70.95;102200.34;6308358;22;45314;-73
2023/10/06 06:38:48;;;;;;;;;16.00;15.00;;;;;14.77;70.75;102239.19;6280752;22;45245;-73
2023/10/06 06:41:14;;;;;;;;;18.75;18.50;;;;;14.64;70.86;102209.06;6308973;22;45493;-73
2023/10/06 06:43:44;;;;;;;;;20.25;15.75;;;;;14.57;70.87;102213.69;6308796;22;45987;-72
2023/10/06 06:46:10;;;;;;;;;19.00;16.00;;;;;14.76;70.62;102246.38;6308495;22;45315;-72
2023/10/06 06:48:35;;;;;;;;;19.25;15.75;;;;;14.58;70.60;102219.94;6308991;22;45356;-73
2023/10/06 06:51:01;;;;;;;;;20.00;17.25;;;;;14.79;70.65;102261.53;6309170;22;45335;-72
2023/10/06 06:53:26;;;;;;;;;17.75;16.00;;;;;14.54;70.69;102208.38;6307769;22;56981;-73
2023/10/06 06:55:51;;;;;;;;;19.75;17.75;;;;;14.65;70.42;102226.97;6308345;22;45235;-74
2023/10/06 06:58:16;;;;;;;;;17.00;13.75;;;;;14.75;70.63;102241.03;6279974;22;45251;-74
2023/10/06 07:00:42;;;;;;;;;16.00;16.00;;;;;14.72;70.61;102239.31;6305916;22;45693;-73
2023/10/06 07:03:08;;;;;;;;;21.75;20.50;;;;;14.80;70.45;102241.78;6279960;22;47311;-73
2023/10/06 07:05:36;;;;;;;;;18.50;16.75;;;;;14.45;70.30;102182.63;6308343;22;45314;-73
2023/10/06 07:08:04;;;;;;;;;22.75;16.75;;;;;14.71;70.89;102232.16;6309078;22;45269;-73
2023/10/06 07:10:30;;;;;;;;;19.50;17.00;;;;;14.49;70.51;102196.88;6308256;22;45270;-73
2023/10/06 07:12:58;;;;;;;;;15.25;15.00;;;;;14.64;70.79;102225.19;6307406;22;45911;-73
2023/10/06 07:15:24;;;;;;;;;16.50;15.75;;;;;14.74;70.76;102248.22;6280399;22;45437;-73
2023/10/06 07:17:51;;;;;;;;;19.50;16.75;;;;;14.74;70.78;102244.66;6280286;22;45329;-73
2023/10/06 07:20:18;;;;;;;;;20.25;19.25;;;;;14.50;70.66;102205.81;6330062;22;45702;-73
2023/10/06 07:22:47;;;;;;;;;20.25;18.75;;;;;14.76;70.88;102251.75;6308562;22;45607;-73
2023/10/06 07:25:15;;;;;;;;;18.75;13.75;;;;;14.72;70.62;102246.50;6279475;22;45687;-73
2023/10/06 07:27:45;;;;;;;;;20.00;18.25;;;;;14.75;71.02;102254.47;6330602;22;45305;-74
2023/10/06 07:30:14;;;;;;;;;22.25;18.50;;;;;14.73;70.68;102249.13;6308152;22;45464;-74
2023/10/06 07:32:44;;;;;;;;;15.50;15.50;;;;;14.69;71.13;102238.53;6279688;22;47332;-78
2023/10/06 07:35:17;;;;;;;;;22.00;19.50;;;;;14.55;70.74;102226.28;6333150;22;45469;-80
2023/10/06 07:37:44;;;;;;;;;23.50;21.75;;;;;14.71;70.98;102256.34;6339991;22;45583;-80
2023/10/06 07:40:14;;;;;;;;;21.50;19.00;;;;;14.76;70.77;102269.69;6340089;22;45317;-80
2023/10/06 07:42:45;;;;;;;;;21.00;18.25;;;;;14.76;70.99;102270.56;6339050;22;47556;-80
2023/10/06 07:45:11;;;;;;;;;22.50;18.50;;;;;14.59;71.20;102238.75;6340454;22;45295;-79
2023/10/06 07:47:44;;;;;;;;;25.00;21.75;;;;;14.77;71.49;102269.66;6340277;22;45268;-80
2023/10/06 07:50:13;;;;;;;;;23.50;20.25;;;;;14.84;71.20;102275.75;6340546;22;45223;-79
2023/10/06 07:52:39;;;;;;;;;24.00;23.25;;;;;14.73;71.33;102250.94;6340451;22;46052;-80
2023/10/06 07:55:05;;;;;;;;;22.00;22.00;;;;;14.78;71.14;102268.72;6339800;22;45574;-80
2023/10/06 07:57:33;;;;;;;;;24.25;20.00;;;;;14.84;71.47;102262.31;6340619;22;45204;-79
2023/10/06 07:59:59;;;;;;;;;23.75;22.25;;;;;14.87;71.39;102269.38;6338767;22;45340;-79
2023/10/06 08:02:26;;;;;;;;;23.25;23.25;;;;;14.90;71.23;102280.97;6339823;22;45265;-79
2023/10/06 08:04:52;;;;;;;;;27.75;23.75;;;;;14.86;71.65;102279.28;6339978;22;45382;-79
2023/10/06 08:07:20;;;;;;;;;21.00;21.00;;;;;14.90;71.42;102280.06;6338614;22;45241;-79
2023/10/06 08:09:46;;;;;;;;;25.75;24.00;;;;;14.94;71.59;102288.03;6339380;22;45205;-80
2023/10/06 08:12:13;;;;;;;;;24.75;24.75;;;;;14.90;71.27;102280.06;6339924;22;45533;-79
2023/10/06 08:14:39;;;;;;;;;24.75;21.25;;;;;14.97;71.47;102287.06;6338204;22;45669;-79
2023/10/06 08:17:05;;;;;;;;;18.75;16.50;;;;;14.92;71.73;102280.94;6339987;22;45242;-79
2023/10/06 08:19:31;;;;;;;;;25.25;24.00;;;;;14.88;71.50;102280.09;6340011;22;45270;-77
2023/10/06 08:21:56;;;;;;;;;24.00;22.75;;;;;14.99;71.80;102296.84;6339622;22;45984;-78
2023/10/06 08:24:21;;;;;;;;;28.00;25.00;;;;;14.96;72.09;102290.69;6340019;22;45244;-77
2023/10/06 08:26:48;;;;;;;;;29.75;29.00;;;;;14.98;71.94;102283.44;6340485;22;45283;-77
2023/10/06 08:29:14;;;;;;;;;25.00;21.75;;;;;15.07;72.19;102302.03;6364311;22;45321;-77
2023/10/06 08:31:39;;;;;;;;;30.00;28.75;;;;;15.08;72.05;102295.72;6338891;22;46312;-77
2023/10/06 08:34:05;;;;;;;;;24.50;24.50;;;;;15.06;72.20;102289.50;6337869;22;45234;-77
2023/10/06 08:36:31;;;;;;;;;24.75;23.25;;;;;15.14;72.27;102300.94;6340061;22;45446;-77
2023/10/06 08:38:57;;;;;;;;;25.75;24.00;;;;;15.10;72.30;102288.53;6338415;22;45482;-78
2023/10/06 08:41:30;;;;;;;;;24.00;23.75;;;;;15.16;72.38;102291.03;6339583;22;45198;-78
2023/10/06 08:44:02;;;;;;;;;25.00;24.00;;;;;15.29;72.44;102298.78;6339202;22;45288;-77
2023/10/06 08:46:28;;;;;;;;;27.25;24.75;;;;;15.33;72.78;102289.69;6338205;22;45439;-77
2023/10/06 08:48:56;;;;;;;;;27.00;25.00;;;;;15.38;72.63;102288.66;6337361;22;45221;-77
2023/10/06 08:51:25;;;;;;;;;25.75;24.00;;;;;15.46;72.33;102288.41;6339466;22;45412;-78
2023/10/06 08:53:55;;;;;;;;;26.00;23.00;;;;;15.55;72.74;102298.94;6339943;22;45424;-77
2023/10/06 08:56:21;;;;;;;;;21.00;21.00;;;;;15.65;72.51;102296.88;6338072;22;45198;-77
2023/10/06 08:58:46;;;;;;;;;26.75;25.50;;;;;15.60;72.61;102284.44;6339576;22;45380;-77
2023/10/06 09:01:12;;;;;;;;;24.00;22.50;;;;;15.71;71.97;102299.34;6337536;22;47313;-77
2023/10/06 09:03:38;;;;;;;;;26.75;23.25;;;;;15.78;72.52;102289.31;6339293;22;45572;-79
2023/10/06 09:06:06;;;;;;;;;23.75;22.00;;;;;15.82;72.66;102292.81;6340402;22;45280;-82
2023/10/06 09:08:43;;;;;;;;;17.00;13.25;;;;;15.89;72.16;102291.72;6340416;22;45272;-81
2023/10/06 09:11:09;;;;;;;;;14.75;14.75;;;;;16.02;71.93;102302.97;6339588;22;45198;-80
2023/10/06 09:13:36;;;;;;;;;15.50;15.00;;;;;16.13;71.58;102308.06;6364398;22;45987;-80
2023/10/06 09:16:03;;;;;;;;;15.25;12.50;;;;;16.21;71.66;102308.69;6338445;22;45357;-80
2023/10/06 09:18:29;;;;;;;;;15.75;11.75;;;;;16.20;71.37;102288.94;6338780;22;45229;-80
2023/10/06 09:21:19;;;;;;;;;14.75;11.00;;;;;16.29;71.18;102299.44;6338034;22;47831;-80
2023/10/06 09:23:46;;;;;;;;;11.75;11.00;;;;;16.40;71.02;102307.16;6337966;22;45461;-80
2023/10/06 09:26:26;;;;;;;;;12.00;11.75;;;;;16.48;70.50;102299.72;6339906;22;45163;-80
2023/10/06 09:28:55;;;;;;;;;11.75;11.75;;;;;16.56;70.39;102306.69;6364439;22;45341;-80
2023/10/06 09:31:34;;;;;;;;;11.50;11.00;;;;;16.63;70.35;102302.84;6337456;22;48262;-80
2023/10/06 09:34:00;;;;;;;;;11.75;10.50;;;;;16.62;70.12;102299.28;6336883;22;45416;-80
2023/10/06 09:36:33;;;;;;;;;12.75;11.00;;;;;16.76;69.99;102314.13;6340583;22;45713;-80
2023/10/06 09:39:14;;;;;;;;;15.00;13.25;;;;;16.81;69.82;102304.94;6338997;22;45226;-80
2023/10/06 09:41:40;;;;;;;;;11.75;11.00;;;;;16.90;69.50;102306.47;6340873;22;46456;-80
2023/10/06 09:44:09;;;;;;;;;14.25;11.50;;;;;16.87;69.58;102279.59;6340897;22;45490;-80
2023/10/06 09:46:34;;;;;;;;;11.25;9.00;;;;;16.99;69.37;102291.78;6339176;22;45763;-81
2023/10/06 09:49:05;;;;;;;;;7.00;6.75;;;;;17.11;68.65;102298.59;6340384;22;45308;-80
2023/10/06 09:51:32;;;;;;;;;13.75;10.50;;;;;17.18;68.38;102290.22;6340133;22;45206;-79
2023/10/06 09:53:58;;;;;;;;;11.00;11.00;;;;;17.27;69.04;102293.50;6341019;22;45323;-80
2023/10/06 09:56:24;;;;;;;;;13.25;11.00;;;;;17.32;68.26;102295.09;6339565;22;45399;-80
2023/10/06 09:58:51;;;;;;;;;12.25;8.25;;;;;17.37;67.77;102285.06;6338845;22;45521;-80
2023/10/06 10:01:16;;;;;;;;;9.75;7.50;;;;;17.45;66.80;102295.53;6340788;22;45253;-80
2023/10/06 10:03:42;;;;;;;;;9.25;7.25;;;;;17.50;66.56;102287.28;6340757;22;45185;-80
2023/10/06 10:06:09;;;;;;;;;9.00;8.75;;;;;17.52;66.18;102280.00;6339668;22;45317;-79
2023/10/06 10:08:36;;;;;;;;;10.50;9.25;;;;;17.61;65.25;102287.78;6341075;22;45411;-79
2023/10/06 10:11:14;;;;;;;;;9.25;8.75;;;;;17.67;66.03;102290.22;6340539;22;45212;-79
2023/10/06 10:13:45;;;;;;;;;11.00;10.00;;;;;17.76;65.74;102289.03;6339843;22;45494;-81
2023/10/06 10:16:46;;;;;;;;;11.75;8.00;;;;;17.80;64.62;102279.84;6341190;22;45390;-81
2023/10/06 10:19:15;;;;;;;;;8.00;6.75;;;;;17.87;64.35;102292.19;6340857;22;45231;-82
2023/10/06 10:21:44;;;;;;;;;10.50;10.25;;;;;17.93;65.01;102293.81;6338814;22;47267;-81
2023/10/06 10:24:13;;;;;;;;;11.50;8.50;;;;;17.92;64.54;102278.53;6339910;22;45349;-81
2023/10/06 10:26:39;;;;;;;;;8.00;7.50;;;;;17.96;63.41;102270.25;6339593;22;45282;-81
2023/10/06 10:29:15;;;;;;;;;11.75;8.50;;;;;18.12;63.09;102286.72;6339865;22;45195;-81
2023/10/06 10:31:51;;;;;;;;;7.50;6.25;;;;;18.17;63.12;102281.13;6337306;22;45922;-81
2023/10/06 10:34:25;;;;;;;;;8.75;8.25;;;;;18.18;62.54;102280.22;6355393;22;45574;-81
2023/10/06 10:36:53;;;;;;;;;7.25;3.25;;;;;18.25;62.27;102279.00;6342754;22;45630;-82
2023/10/06 10:39:19;;;;;;;;;7.75;7.00;;;;;18.21;61.62;102262.97;6371172;22;45325;-82
2023/10/06 10:41:45;;;;;;;;;9.50;8.25;;;;;18.33;62.27;102278.72;6372097;22;45244;-81
2023/10/06 10:44:12;;;;;;;;;11.75;8.25;;;;;18.28;61.58;102256.41;6370840;22;45431;-82
2023/10/06 10:46:48;;;;;;;;;6.00;5.50;;;;;18.38;61.31;102251.50;6372060;22;45226;-82
2023/10/06 10:49:19;;;;;;;;;5.00;4.25;;;;;18.53;61.78;102256.25;6371892;22;45503;-85
2023/10/06 10:52:07;;;;;;;;;9.50;8.50;;;;;18.59;61.50;102252.41;6372121;22;45188;-84
2023/10/06 10:54:35;;;;;;;;;8.50;6.25;;;;;18.65;61.35;102253.03;6344031;22;45589;-84
2023/10/06 10:57:13;;;;;;;;;10.50;7.00;;;;;18.66;61.13;102241.28;6372470;22;45262;-84
2023/10/06 11:02:59;;;;;;;;;8.50;6.75;;;;;18.82;61.31;102238.78;6370629;22;45288;-82
2023/10/06 11:05:26;;;;;;;;;6.75;6.75;;;;;18.82;60.52;102230.66;6372057;22;45248;-82
2023/10/06 11:07:54;;;;;;;;;8.50;8.00;;;;;18.95;59.89;102238.28;6372102;22;45163;-82
2023/10/06 11:10:22;;;;;;;;;10.25;8.00;;;;;19.00;60.23;102236.25;6371875;22;45375;-82
2023/10/06 11:12:48;;;;;;;;;5.75;5.00;;;;;19.01;60.08;102225.38;6371352;22;45241;-80
2023/10/06 11:15:26;;;;;;;;;12.75;10.00;;;;;19.11;59.89;102239.38;6367970;22;45640;-80
2023/10/06 11:17:55;;;;;;;;;10.00;10.00;;;;;19.10;59.89;102220.50;6343714;22;45331;-80
2023/10/06 11:20:33;;;;;;;;;10.75;7.25;;;;;19.22;59.54;102233.47;6370221;22;45256;-80
2023/10/06 11:23:00;;;;;;;;;7.50;6.25;;;;;19.24;59.33;102231.56;6372332;22;45205;-80